sensor_id;sensor_type;location;lat;lon;timestamp;P1;durP1;ratioP1;P2;durP2;ratioP2
76788;SDS011;65740;52.464;13.446;2023-07-13T00:02:09;3.73;;;3.53;;
76788;SDS011;65740;52.464;13.446;2023-07-13T00:04:35;4.20;;;3.70;;
76788;SDS011;65740;52.464;13.446;2023-07-13T00:07:01;4.30;;;4.00;;
76788;SDS011;65740;52.464;13.446;2023-07-13T00:09:27;4.27;;;3.87;;
76788;SDS011;65740;52.464;13.446;2023-07-13T00:11:54;4.20;;;3.80;;
76788;SDS011;65740;52.464;13.446;2023-07-13T00:14:22;4.20;;;3.90;;
76788;SDS011;65740;52.464;13.446;2023-07-13T00:16:49;3.80;;;3.53;;
76788;SDS011;65740;52.464;13.446;2023-07-13T00:19:15;4.03;;;3.83;;
76788;SDS011;65740;52.464;13.446;2023-07-13T00:21:40;3.80;;;3.50;;
76788;SDS011;65740;52.464;13.446;2023-07-13T00:24:16;4.17;;;3.87;;
76788;SDS011;65740;52.464;13.446;2023-07-13T00:26:48;4.13;;;3.90;;
76788;SDS011;65740;52.464;13.446;2023-07-13T00:29:14;3.93;;;3.70;;
76788;SDS011;65740;52.464;13.446;2023-07-13T00:31:41;3.90;;;3.60;;
76788;SDS011;65740;52.464;13.446;2023-07-13T00:34:07;4.33;;;4.03;;
76788;SDS011;65740;52.464;13.446;2023-07-13T00:36:33;4.30;;;4.00;;
76788;SDS011;65740;52.464;13.446;2023-07-13T00:38:59;4.07;;;3.77;;
76788;SDS011;65740;52.464;13.446;2023-07-13T00:41:24;3.70;;;3.50;;
76788;SDS011;65740;52.464;13.446;2023-07-13T00:43:51;3.80;;;3.50;;
76788;SDS011;65740;52.464;13.446;2023-07-13T00:46:18;3.73;;;3.53;;
76788;SDS011;65740;52.464;13.446;2023-07-13T00:48:47;3.60;;;3.40;;
76788;SDS011;65740;52.464;13.446;2023-07-13T00:51:15;3.43;;;3.10;;
76788;SDS011;65740;52.464;13.446;2023-07-13T00:53:47;3.30;;;3.10;;
76788;SDS011;65740;52.464;13.446;2023-07-13T00:56:12;3.73;;;3.43;;
76788;SDS011;65740;52.464;13.446;2023-07-13T00:58:38;3.17;;;2.97;;
76788;SDS011;65740;52.464;13.446;2023-07-13T01:01:04;3.93;;;3.73;;
76788;SDS011;65740;52.464;13.446;2023-07-13T01:03:30;3.90;;;3.70;;
76788;SDS011;65740;52.464;13.446;2023-07-13T01:05:55;3.80;;;3.50;;
76788;SDS011;65740;52.464;13.446;2023-07-13T01:08:21;3.80;;;3.60;;
76788;SDS011;65740;52.464;13.446;2023-07-13T01:10:51;4.07;;;3.77;;
76788;SDS011;65740;52.464;13.446;2023-07-13T01:13:18;3.43;;;3.23;;
76788;SDS011;65740;52.464;13.446;2023-07-13T01:15:47;4.03;;;3.73;;
76788;SDS011;65740;52.464;13.446;2023-07-13T01:18:16;3.60;;;3.40;;
76788;SDS011;65740;52.464;13.446;2023-07-13T01:21:01;3.70;;;3.43;;
76788;SDS011;65740;52.464;13.446;2023-07-13T01:23:29;3.80;;;3.60;;
76788;SDS011;65740;52.464;13.446;2023-07-13T01:25:56;3.50;;;3.30;;
76788;SDS011;65740;52.464;13.446;2023-07-13T01:28:24;3.47;;;3.27;;
76788;SDS011;65740;52.464;13.446;2023-07-13T01:30:55;3.37;;;3.10;;
76788;SDS011;65740;52.464;13.446;2023-07-13T01:33:23;3.70;;;3.40;;
76788;SDS011;65740;52.464;13.446;2023-07-13T01:35:49;3.93;;;3.63;;
76788;SDS011;65740;52.464;13.446;2023-07-13T01:38:15;3.60;;;3.30;;
76788;SDS011;65740;52.464;13.446;2023-07-13T01:40:43;3.70;;;3.50;;
76788;SDS011;65740;52.464;13.446;2023-07-13T01:43:09;3.87;;;3.53;;
76788;SDS011;65740;52.464;13.446;2023-07-13T01:45:34;4.03;;;3.67;;
76788;SDS011;65740;52.464;13.446;2023-07-13T01:48:00;3.70;;;3.40;;
76788;SDS011;65740;52.464;13.446;2023-07-13T01:50:26;3.27;;;3.07;;
76788;SDS011;65740;52.464;13.446;2023-07-13T01:52:52;3.87;;;3.63;;
76788;SDS011;65740;52.464;13.446;2023-07-13T01:55:18;3.90;;;3.60;;
76788;SDS011;65740;52.464;13.446;2023-07-13T01:57:44;4.00;;;3.70;;
76788;SDS011;65740;52.464;13.446;2023-07-13T02:00:10;3.63;;;3.43;;
76788;SDS011;65740;52.464;13.446;2023-07-13T02:02:36;3.67;;;3.37;;
76788;SDS011;65740;52.464;13.446;2023-07-13T02:05:02;3.30;;;3.10;;
76788;SDS011;65740;52.464;13.446;2023-07-13T02:07:28;3.77;;;3.47;;
76788;SDS011;65740;52.464;13.446;2023-07-13T02:09:53;3.37;;;3.10;;
76788;SDS011;65740;52.464;13.446;2023-07-13T02:12:19;3.20;;;3.00;;
76788;SDS011;65740;52.464;13.446;2023-07-13T02:14:45;3.77;;;3.47;;
76788;SDS011;65740;52.464;13.446;2023-07-13T02:17:10;3.63;;;3.43;;
76788;SDS011;65740;52.464;13.446;2023-07-13T02:19:36;3.40;;;3.20;;
76788;SDS011;65740;52.464;13.446;2023-07-13T02:22:01;3.33;;;3.13;;
76788;SDS011;65740;52.464;13.446;2023-07-13T02:24:28;3.30;;;3.10;;
76788;SDS011;65740;52.464;13.446;2023-07-13T02:26:53;3.50;;;3.30;;
76788;SDS011;65740;52.464;13.446;2023-07-13T02:29:19;3.30;;;3.10;;
76788;SDS011;65740;52.464;13.446;2023-07-13T02:31:44;3.30;;;3.10;;
76788;SDS011;65740;52.464;13.446;2023-07-13T02:34:10;3.60;;;3.40;;
76788;SDS011;65740;52.464;13.446;2023-07-13T02:36:36;3.50;;;3.30;;
76788;SDS011;65740;52.464;13.446;2023-07-13T02:39:03;4.00;;;3.70;;
76788;SDS011;65740;52.464;13.446;2023-07-13T02:41:30;3.77;;;3.57;;
76788;SDS011;65740;52.464;13.446;2023-07-13T02:43:55;3.80;;;3.60;;
76788;SDS011;65740;52.464;13.446;2023-07-13T02:46:28;4.03;;;3.73;;
76788;SDS011;65740;52.464;13.446;2023-07-13T02:48:54;3.53;;;3.33;;
76788;SDS011;65740;52.464;13.446;2023-07-13T02:51:20;3.53;;;3.33;;
76788;SDS011;65740;52.464;13.446;2023-07-13T02:53:45;4.03;;;3.73;;
76788;SDS011;65740;52.464;13.446;2023-07-13T02:56:11;3.80;;;3.60;;
76788;SDS011;65740;52.464;13.446;2023-07-13T02:58:37;3.57;;;3.37;;
76788;SDS011;65740;52.464;13.446;2023-07-13T03:01:06;3.90;;;3.60;;
76788;SDS011;65740;52.464;13.446;2023-07-13T03:03:33;3.60;;;3.40;;
76788;SDS011;65740;52.464;13.446;2023-07-13T03:05:59;3.53;;;3.33;;
76788;SDS011;65740;52.464;13.446;2023-07-13T03:08:27;3.70;;;3.50;;
76788;SDS011;65740;52.464;13.446;2023-07-13T03:10:59;4.20;;;4.00;;
76788;SDS011;65740;52.464;13.446;2023-07-13T03:13:30;3.90;;;3.60;;
76788;SDS011;65740;52.464;13.446;2023-07-13T03:15:56;4.07;;;3.80;;
76788;SDS011;65740;52.464;13.446;2023-07-13T03:18:22;4.43;;;4.23;;
76788;SDS011;65740;52.464;13.446;2023-07-13T03:20:50;3.63;;;3.40;;
76788;SDS011;65740;52.464;13.446;2023-07-13T03:23:16;4.20;;;3.90;;
76788;SDS011;65740;52.464;13.446;2023-07-13T03:25:42;3.77;;;3.57;;
76788;SDS011;65740;52.464;13.446;2023-07-13T03:28:07;4.13;;;3.90;;
76788;SDS011;65740;52.464;13.446;2023-07-13T03:30:33;3.87;;;3.60;;
76788;SDS011;65740;52.464;13.446;2023-07-13T03:32:59;4.00;;;3.70;;
76788;SDS011;65740;52.464;13.446;2023-07-13T03:35:24;3.60;;;3.40;;
76788;SDS011;65740;52.464;13.446;2023-07-13T03:37:50;3.80;;;3.60;;
76788;SDS011;65740;52.464;13.446;2023-07-13T03:40:16;4.00;;;3.77;;
76788;SDS011;65740;52.464;13.446;2023-07-13T03:42:42;3.90;;;3.70;;
76788;SDS011;65740;52.464;13.446;2023-07-13T03:45:07;3.90;;;3.70;;
76788;SDS011;65740;52.464;13.446;2023-07-13T03:47:33;3.73;;;3.53;;
76788;SDS011;65740;52.464;13.446;2023-07-13T03:49:59;4.23;;;3.90;;
76788;SDS011;65740;52.464;13.446;2023-07-13T03:52:25;3.80;;;3.50;;
76788;SDS011;65740;52.464;13.446;2023-07-13T03:54:50;4.00;;;3.80;;
76788;SDS011;65740;52.464;13.446;2023-07-13T03:57:16;3.97;;;3.67;;
76788;SDS011;65740;52.464;13.446;2023-07-13T03:59:41;4.10;;;3.80;;
76788;SDS011;65740;52.464;13.446;2023-07-13T04:02:07;3.80;;;3.50;;
76788;SDS011;65740;52.464;13.446;2023-07-13T04:04:33;4.50;;;4.20;;
76788;SDS011;65740;52.464;13.446;2023-07-13T04:06:58;3.63;;;3.43;;
76788;SDS011;65740;52.464;13.446;2023-07-13T04:09:24;3.70;;;3.50;;
76788;SDS011;65740;52.464;13.446;2023-07-13T04:11:50;3.87;;;3.67;;
76788;SDS011;65740;52.464;13.446;2023-07-13T04:14:16;3.77;;;3.50;;
76788;SDS011;65740;52.464;13.446;2023-07-13T04:16:41;4.00;;;3.70;;
76788;SDS011;65740;52.464;13.446;2023-07-13T04:19:08;4.10;;;3.80;;
76788;SDS011;65740;52.464;13.446;2023-07-13T04:21:35;4.00;;;3.80;;
76788;SDS011;65740;52.464;13.446;2023-07-13T04:24:01;3.70;;;3.50;;
76788;SDS011;65740;52.464;13.446;2023-07-13T04:26:28;4.40;;;4.10;;
76788;SDS011;65740;52.464;13.446;2023-07-13T04:28:54;4.33;;;4.03;;
76788;SDS011;65740;52.464;13.446;2023-07-13T04:31:20;4.00;;;3.80;;
76788;SDS011;65740;52.464;13.446;2023-07-13T04:33:46;3.83;;;3.63;;
76788;SDS011;65740;52.464;13.446;2023-07-13T04:36:13;3.90;;;3.60;;
76788;SDS011;65740;52.464;13.446;2023-07-13T04:38:39;3.97;;;3.77;;
76788;SDS011;65740;52.464;13.446;2023-07-13T04:41:06;4.17;;;3.87;;
76788;SDS011;65740;52.464;13.446;2023-07-13T04:43:32;3.67;;;3.37;;
76788;SDS011;65740;52.464;13.446;2023-07-13T04:46:03;3.70;;;3.50;;
76788;SDS011;65740;52.464;13.446;2023-07-13T04:48:32;4.40;;;4.00;;
76788;SDS011;65740;52.464;13.446;2023-07-13T04:50:59;4.03;;;3.83;;
76788;SDS011;65740;52.464;13.446;2023-07-13T04:53:26;3.70;;;3.50;;
76788;SDS011;65740;52.464;13.446;2023-07-13T04:55:52;3.63;;;3.43;;
76788;SDS011;65740;52.464;13.446;2023-07-13T04:58:17;4.00;;;3.70;;
76788;SDS011;65740;52.464;13.446;2023-07-13T05:00:43;4.80;;;4.40;;
76788;SDS011;65740;52.464;13.446;2023-07-13T05:03:09;4.17;;;3.90;;
76788;SDS011;65740;52.464;13.446;2023-07-13T05:05:34;4.30;;;4.00;;
76788;SDS011;65740;52.464;13.446;2023-07-13T05:08:00;4.03;;;3.83;;
76788;SDS011;65740;52.464;13.446;2023-07-13T05:10:26;3.87;;;3.67;;
76788;SDS011;65740;52.464;13.446;2023-07-13T05:12:52;4.90;;;4.50;;
76788;SDS011;65740;52.464;13.446;2023-07-13T05:15:17;4.37;;;3.97;;
76788;SDS011;65740;52.464;13.446;2023-07-13T05:17:46;3.70;;;3.50;;
76788;SDS011;65740;52.464;13.446;2023-07-13T05:20:12;4.13;;;3.93;;
76788;SDS011;65740;52.464;13.446;2023-07-13T05:22:38;4.07;;;3.87;;
76788;SDS011;65740;52.464;13.446;2023-07-13T05:25:05;4.00;;;3.70;;
76788;SDS011;65740;52.464;13.446;2023-07-13T05:27:31;3.57;;;3.30;;
76788;SDS011;65740;52.464;13.446;2023-07-13T05:29:57;4.03;;;3.83;;
76788;SDS011;65740;52.464;13.446;2023-07-13T05:32:22;4.53;;;4.23;;
76788;SDS011;65740;52.464;13.446;2023-07-13T05:34:48;3.67;;;3.43;;
76788;SDS011;65740;52.464;13.446;2023-07-13T05:37:13;3.83;;;3.60;;
76788;SDS011;65740;52.464;13.446;2023-07-13T05:39:39;3.90;;;3.70;;
76788;SDS011;65740;52.464;13.446;2023-07-13T05:42:05;3.90;;;3.43;;
76788;SDS011;65740;52.464;13.446;2023-07-13T05:44:31;3.97;;;3.77;;
76788;SDS011;65740;52.464;13.446;2023-07-13T05:46:56;3.73;;;3.53;;
76788;SDS011;65740;52.464;13.446;2023-07-13T05:49:22;3.90;;;3.70;;
76788;SDS011;65740;52.464;13.446;2023-07-13T05:51:48;3.87;;;3.67;;
76788;SDS011;65740;52.464;13.446;2023-07-13T05:54:14;3.90;;;3.57;;
76788;SDS011;65740;52.464;13.446;2023-07-13T05:56:39;4.30;;;4.00;;
76788;SDS011;65740;52.464;13.446;2023-07-13T05:59:05;3.83;;;3.63;;
76788;SDS011;65740;52.464;13.446;2023-07-13T06:01:31;3.70;;;3.50;;
76788;SDS011;65740;52.464;13.446;2023-07-13T06:03:56;3.73;;;3.53;;
76788;SDS011;65740;52.464;13.446;2023-07-13T06:06:22;3.70;;;3.50;;
76788;SDS011;65740;52.464;13.446;2023-07-13T06:08:48;3.83;;;3.53;;
76788;SDS011;65740;52.464;13.446;2023-07-13T06:11:15;4.63;;;4.30;;
76788;SDS011;65740;52.464;13.446;2023-07-13T06:13:42;4.30;;;4.00;;
76788;SDS011;65740;52.464;13.446;2023-07-13T06:16:09;4.00;;;3.80;;
76788;SDS011;65740;52.464;13.446;2023-07-13T06:18:35;3.93;;;3.73;;
76788;SDS011;65740;52.464;13.446;2023-07-13T06:21:06;4.80;;;4.17;;
76788;SDS011;65740;52.464;13.446;2023-07-13T06:23:32;4.03;;;3.77;;
76788;SDS011;65740;52.464;13.446;2023-07-13T06:25:58;4.20;;;4.00;;
76788;SDS011;65740;52.464;13.446;2023-07-13T06:28:23;4.37;;;4.07;;
76788;SDS011;65740;52.464;13.446;2023-07-13T06:30:49;4.37;;;4.17;;
76788;SDS011;65740;52.464;13.446;2023-07-13T06:33:15;4.13;;;3.83;;
76788;SDS011;65740;52.464;13.446;2023-07-13T06:35:41;4.50;;;4.20;;
76788;SDS011;65740;52.464;13.446;2023-07-13T06:38:07;4.50;;;4.20;;
76788;SDS011;65740;52.464;13.446;2023-07-13T06:40:33;4.50;;;4.20;;
76788;SDS011;65740;52.464;13.446;2023-07-13T06:42:58;4.20;;;3.90;;
76788;SDS011;65740;52.464;13.446;2023-07-13T06:45:24;4.50;;;4.20;;
76788;SDS011;65740;52.464;13.446;2023-07-13T06:47:49;4.30;;;4.00;;
76788;SDS011;65740;52.464;13.446;2023-07-13T06:50:15;4.53;;;4.20;;
76788;SDS011;65740;52.464;13.446;2023-07-13T06:52:41;4.80;;;4.50;;
76788;SDS011;65740;52.464;13.446;2023-07-13T06:55:06;4.27;;;3.80;;
76788;SDS011;65740;52.464;13.446;2023-07-13T06:57:33;4.27;;;3.97;;
76788;SDS011;65740;52.464;13.446;2023-07-13T06:59:58;3.70;;;3.50;;
76788;SDS011;65740;52.464;13.446;2023-07-13T07:02:24;4.10;;;3.80;;
76788;SDS011;65740;52.464;13.446;2023-07-13T07:04:50;4.20;;;4.00;;
76788;SDS011;65740;52.464;13.446;2023-07-13T07:07:15;4.60;;;4.20;;
76788;SDS011;65740;52.464;13.446;2023-07-13T07:09:41;4.80;;;4.33;;
76788;SDS011;65740;52.464;13.446;2023-07-13T07:12:06;4.37;;;4.07;;
76788;SDS011;65740;52.464;13.446;2023-07-13T07:14:32;4.87;;;4.60;;
76788;SDS011;65740;52.464;13.446;2023-07-13T07:16:59;4.80;;;4.40;;
76788;SDS011;65740;52.464;13.446;2023-07-13T07:19:25;3.70;;;3.50;;
76788;SDS011;65740;52.464;13.446;2023-07-13T07:21:51;4.33;;;4.03;;
76788;SDS011;65740;52.464;13.446;2023-07-13T07:24:16;4.47;;;4.17;;
76788;SDS011;65740;52.464;13.446;2023-07-13T07:26:42;3.60;;;3.40;;
76788;SDS011;65740;52.464;13.446;2023-07-13T07:29:07;3.87;;;3.67;;
76788;SDS011;65740;52.464;13.446;2023-07-13T07:31:33;4.03;;;3.63;;
76788;SDS011;65740;52.464;13.446;2023-07-13T07:33:59;3.83;;;3.57;;
76788;SDS011;65740;52.464;13.446;2023-07-13T07:36:25;4.47;;;4.17;;
76788;SDS011;65740;52.464;13.446;2023-07-13T07:38:50;4.17;;;3.97;;
76788;SDS011;65740;52.464;13.446;2023-07-13T07:41:16;4.37;;;4.00;;
76788;SDS011;65740;52.464;13.446;2023-07-13T07:43:41;4.60;;;4.30;;
76788;SDS011;65740;52.464;13.446;2023-07-13T07:46:07;6.20;;;4.70;;
76788;SDS011;65740;52.464;13.446;2023-07-13T07:48:33;4.33;;;4.03;;
76788;SDS011;65740;52.464;13.446;2023-07-13T07:50:58;4.20;;;3.90;;
76788;SDS011;65740;52.464;13.446;2023-07-13T07:53:24;3.70;;;3.50;;
76788;SDS011;65740;52.464;13.446;2023-07-13T07:55:50;4.73;;;4.33;;
76788;SDS011;65740;52.464;13.446;2023-07-13T07:58:16;4.53;;;4.10;;
76788;SDS011;65740;52.464;13.446;2023-07-13T08:00:42;4.80;;;4.10;;
76788;SDS011;65740;52.464;13.446;2023-07-13T08:03:07;4.00;;;3.70;;
76788;SDS011;65740;52.464;13.446;2023-07-13T08:05:35;4.07;;;3.77;;
76788;SDS011;65740;52.464;13.446;2023-07-13T08:08:01;3.80;;;3.60;;
76788;SDS011;65740;52.464;13.446;2023-07-13T08:10:27;4.33;;;3.60;;
76788;SDS011;65740;52.464;13.446;2023-07-13T08:12:53;4.30;;;4.00;;
76788;SDS011;65740;52.464;13.446;2023-07-13T08:15:19;4.30;;;4.00;;
76788;SDS011;65740;52.464;13.446;2023-07-13T08:17:46;4.07;;;3.77;;
76788;SDS011;65740;52.464;13.446;2023-07-13T08:20:12;4.33;;;4.00;;
76788;SDS011;65740;52.464;13.446;2023-07-13T08:22:39;6.63;;;3.97;;
76788;SDS011;65740;52.464;13.446;2023-07-13T08:25:04;4.57;;;4.30;;
76788;SDS011;65740;52.464;13.446;2023-07-13T08:27:30;4.67;;;4.37;;
76788;SDS011;65740;52.464;13.446;2023-07-13T08:29:56;3.70;;;3.40;;
76788;SDS011;65740;52.464;13.446;2023-07-13T08:32:22;3.93;;;3.70;;
76788;SDS011;65740;52.464;13.446;2023-07-13T08:34:48;4.37;;;4.00;;
76788;SDS011;65740;52.464;13.446;2023-07-13T08:37:14;3.60;;;3.40;;
76788;SDS011;65740;52.464;13.446;2023-07-13T08:39:40;3.83;;;3.53;;
76788;SDS011;65740;52.464;13.446;2023-07-13T08:47:32;4.13;;;3.80;;
76788;SDS011;65740;52.464;13.446;2023-07-13T08:50:02;4.30;;;3.90;;
76788;SDS011;65740;52.464;13.446;2023-07-13T08:52:33;4.10;;;3.70;;
76788;SDS011;65740;52.464;13.446;2023-07-13T08:55:15;4.10;;;3.80;;
76788;SDS011;65740;52.464;13.446;2023-07-13T08:57:54;4.50;;;4.07;;
76788;SDS011;65740;52.464;13.446;2023-07-13T09:00:27;4.00;;;3.70;;
76788;SDS011;65740;52.464;13.446;2023-07-13T09:03:05;4.40;;;4.00;;
76788;SDS011;65740;52.464;13.446;2023-07-13T09:05:45;4.40;;;4.00;;
76788;SDS011;65740;52.464;13.446;2023-07-13T09:11:23;5.83;;;4.40;;
76788;SDS011;65740;52.464;13.446;2023-07-13T09:16:28;6.07;;;4.40;;
76788;SDS011;65740;52.464;13.446;2023-07-13T09:18:54;5.00;;;4.00;;
76788;SDS011;65740;52.464;13.446;2023-07-13T09:21:32;4.27;;;3.87;;
76788;SDS011;65740;52.464;13.446;2023-07-13T09:24:15;3.83;;;3.50;;
76788;SDS011;65740;52.464;13.446;2023-07-13T09:27:22;4.20;;;3.67;;
76788;SDS011;65740;52.464;13.446;2023-07-13T09:32:41;4.10;;;3.70;;
76788;SDS011;65740;52.464;13.446;2023-07-13T09:35:14;4.40;;;3.90;;
76788;SDS011;65740;52.464;13.446;2023-07-13T09:37:43;3.73;;;3.10;;
76788;SDS011;65740;52.464;13.446;2023-07-13T09:40:11;6.03;;;3.70;;
76788;SDS011;65740;52.464;13.446;2023-07-13T09:43:08;4.13;;;3.77;;
76788;SDS011;65740;52.464;13.446;2023-07-13T09:45:38;4.37;;;3.93;;
76788;SDS011;65740;52.464;13.446;2023-07-13T09:48:10;4.70;;;4.30;;
76788;SDS011;65740;52.464;13.446;2023-07-13T09:50:38;4.50;;;4.20;;
76788;SDS011;65740;52.464;13.446;2023-07-13T09:53:04;4.93;;;4.53;;
76788;SDS011;65740;52.464;13.446;2023-07-13T09:55:41;4.63;;;4.30;;
76788;SDS011;65740;52.464;13.446;2023-07-13T09:58:09;7.30;;;4.53;;
76788;SDS011;65740;52.464;13.446;2023-07-13T10:01:00;5.50;;;4.93;;
76788;SDS011;65740;52.464;13.446;2023-07-13T10:03:30;4.87;;;4.57;;
76788;SDS011;65740;52.464;13.446;2023-07-13T10:06:16;5.50;;;5.00;;
76788;SDS011;65740;52.464;13.446;2023-07-13T10:08:46;4.87;;;4.57;;
76788;SDS011;65740;52.464;13.446;2023-07-13T10:11:24;7.73;;;4.97;;
76788;SDS011;65740;52.464;13.446;2023-07-13T10:13:58;6.00;;;5.37;;
76788;SDS011;65740;52.464;13.446;2023-07-13T10:16:27;5.33;;;4.90;;
76788;SDS011;65740;52.464;13.446;2023-07-13T10:18:58;5.90;;;5.40;;
76788;SDS011;65740;52.464;13.446;2023-07-13T10:21:38;5.83;;;5.43;;
76788;SDS011;65740;52.464;13.446;2023-07-13T10:24:27;6.47;;;5.10;;
76788;SDS011;65740;52.464;13.446;2023-07-13T10:29:38;6.17;;;5.13;;
76788;SDS011;65740;52.464;13.446;2023-07-13T10:32:09;5.73;;;5.23;;
76788;SDS011;65740;52.464;13.446;2023-07-13T10:34:36;4.97;;;4.67;;
76788;SDS011;65740;52.464;13.446;2023-07-13T10:37:02;6.00;;;5.50;;
76788;SDS011;65740;52.464;13.446;2023-07-13T10:39:30;5.87;;;5.37;;
76788;SDS011;65740;52.464;13.446;2023-07-13T10:41:59;6.70;;;4.93;;
76788;SDS011;65740;52.464;13.446;2023-07-13T10:44:30;5.83;;;5.43;;
76788;SDS011;65740;52.464;13.446;2023-07-13T10:47:01;7.33;;;5.00;;
76788;SDS011;65740;52.464;13.446;2023-07-13T10:49:31;5.90;;;5.23;;
76788;SDS011;65740;52.464;13.446;2023-07-13T10:51:57;7.27;;;5.77;;
76788;SDS011;65740;52.464;13.446;2023-07-13T10:57:28;5.80;;;5.30;;
76788;SDS011;65740;52.464;13.446;2023-07-13T10:59:48;16.57;;;11.40;;
76788;SDS011;65740;52.464;13.446;2023-07-13T11:02:34;41.20;;;18.10;;
76788;SDS011;65740;52.464;13.446;2023-07-13T11:05:01;46.27;;;20.47;;
76788;SDS011;65740;52.464;13.446;2023-07-13T11:07:54;74.70;;;34.90;;
76788;SDS011;65740;52.464;13.446;2023-07-13T11:16:11;107.57;;;43.43;;
76788;SDS011;65740;52.464;13.446;2023-07-13T11:18:38;92.37;;;37.63;;
76788;SDS011;65740;52.464;13.446;2023-07-13T11:31:52;32.90;;;15.27;;
76788;SDS011;65740;52.464;13.446;2023-07-13T11:34:38;21.77;;;13.13;;
76788;SDS011;65740;52.464;13.446;2023-07-13T11:37:08;22.87;;;11.27;;
76788;SDS011;65740;52.464;13.446;2023-07-13T11:39:38;21.17;;;15.97;;
76788;SDS011;65740;52.464;13.446;2023-07-13T11:42:12;16.07;;;13.70;;
76788;SDS011;65740;52.464;13.446;2023-07-13T11:44:43;19.23;;;11.80;;
76788;SDS011;65740;52.464;13.446;2023-07-13T11:47:14;11.33;;;10.10;;
76788;SDS011;65740;52.464;13.446;2023-07-13T11:49:48;13.87;;;9.97;;
76788;SDS011;65740;52.464;13.446;2023-07-13T11:52:27;12.30;;;9.03;;
76788;SDS011;65740;52.464;13.446;2023-07-13T11:54:59;9.03;;;8.00;;
76788;SDS011;65740;52.464;13.446;2023-07-13T11:57:30;8.77;;;7.50;;
76788;SDS011;65740;52.464;13.446;2023-07-13T12:00:00;7.97;;;7.17;;
76788;SDS011;65740;52.464;13.446;2023-07-13T12:02:29;7.63;;;6.93;;
76788;SDS011;65740;52.464;13.446;2023-07-13T12:04:59;8.57;;;6.73;;
76788;SDS011;65740;52.464;13.446;2023-07-13T12:07:28;7.80;;;7.10;;
76788;SDS011;65740;52.464;13.446;2023-07-13T12:12:37;6.33;;;5.70;;
76788;SDS011;65740;52.464;13.446;2023-07-13T12:15:10;5.67;;;5.20;;
76788;SDS011;65740;52.464;13.446;2023-07-13T12:17:37;6.60;;;5.90;;
76788;SDS011;65740;52.464;13.446;2023-07-13T12:20:07;11.63;;;5.70;;
76788;SDS011;65740;52.464;13.446;2023-07-13T12:22:49;7.47;;;6.87;;
76788;SDS011;65740;52.464;13.446;2023-07-13T12:25:15;12.17;;;11.17;;
76788;SDS011;65740;52.464;13.446;2023-07-13T12:27:42;9.60;;;8.60;;
76788;SDS011;65740;52.464;13.446;2023-07-13T12:30:31;8.80;;;7.93;;
76788;SDS011;65740;52.464;13.446;2023-07-13T12:33:07;7.80;;;7.10;;
76788;SDS011;65740;52.464;13.446;2023-07-13T12:35:49;6.70;;;6.00;;
76788;SDS011;65740;52.464;13.446;2023-07-13T12:38:17;6.60;;;5.93;;
76788;SDS011;65740;52.464;13.446;2023-07-13T12:40:45;7.73;;;6.30;;
76788;SDS011;65740;52.464;13.446;2023-07-13T12:43:15;5.97;;;5.40;;
76788;SDS011;65740;52.464;13.446;2023-07-13T12:48:49;5.67;;;5.17;;
76788;SDS011;65740;52.464;13.446;2023-07-13T12:51:21;5.43;;;5.03;;
76788;SDS011;65740;52.464;13.446;2023-07-13T12:53:57;6.93;;;5.33;;
76788;SDS011;65740;52.464;13.446;2023-07-13T12:56:32;5.40;;;4.80;;
76788;SDS011;65740;52.464;13.446;2023-07-13T12:58:59;5.07;;;4.57;;
76788;SDS011;65740;52.464;13.446;2023-07-13T13:01:28;5.30;;;4.90;;
76788;SDS011;65740;52.464;13.446;2023-07-13T13:03:57;5.73;;;5.10;;
76788;SDS011;65740;52.464;13.446;2023-07-13T13:06:31;5.53;;;4.63;;
76788;SDS011;65740;52.464;13.446;2023-07-13T13:08:58;7.97;;;4.47;;
76788;SDS011;65740;52.464;13.446;2023-07-13T13:11:25;5.50;;;5.00;;
76788;SDS011;65740;52.464;13.446;2023-07-13T13:13:52;5.13;;;4.73;;
76788;SDS011;65740;52.464;13.446;2023-07-13T13:16:20;7.67;;;6.90;;
76788;SDS011;65740;52.464;13.446;2023-07-13T13:18:47;8.13;;;7.53;;
76788;SDS011;65740;52.464;13.446;2023-07-13T13:21:17;8.00;;;7.13;;
76788;SDS011;65740;52.464;13.446;2023-07-13T13:23:44;7.70;;;6.90;;
76788;SDS011;65740;52.464;13.446;2023-07-13T13:26:11;6.97;;;6.37;;
76788;SDS011;65740;52.464;13.446;2023-07-13T13:28:38;9.20;;;6.20;;
76788;SDS011;65740;52.464;13.446;2023-07-13T13:31:04;6.23;;;5.60;;
76788;SDS011;65740;52.464;13.446;2023-07-13T13:33:29;5.50;;;5.00;;
76788;SDS011;65740;52.464;13.446;2023-07-13T13:35:55;6.90;;;5.37;;
76788;SDS011;65740;52.464;13.446;2023-07-13T13:38:24;5.40;;;4.90;;
76788;SDS011;65740;52.464;13.446;2023-07-13T13:40:51;4.90;;;4.60;;
76788;SDS011;65740;52.464;13.446;2023-07-13T13:43:18;4.43;;;4.03;;
76788;SDS011;65740;52.464;13.446;2023-07-13T13:45:51;4.37;;;4.03;;
76788;SDS011;65740;52.464;13.446;2023-07-13T13:48:19;6.50;;;4.43;;
76788;SDS011;65740;52.464;13.446;2023-07-13T13:50:55;4.83;;;4.33;;
76788;SDS011;65740;52.464;13.446;2023-07-13T13:53:21;4.43;;;4.13;;
76788;SDS011;65740;52.464;13.446;2023-07-13T13:55:48;4.80;;;4.30;;
76788;SDS011;65740;52.464;13.446;2023-07-13T13:58:14;4.00;;;3.70;;
76788;SDS011;65740;52.464;13.446;2023-07-13T14:00:40;4.97;;;4.33;;
76788;SDS011;65740;52.464;13.446;2023-07-13T14:03:16;5.33;;;3.80;;
76788;SDS011;65740;52.464;13.446;2023-07-13T14:05:43;8.43;;;4.80;;
76788;SDS011;65740;52.464;13.446;2023-07-13T14:08:12;4.80;;;4.30;;
76788;SDS011;65740;52.464;13.446;2023-07-13T14:10:42;6.03;;;3.70;;
76788;SDS011;65740;52.464;13.446;2023-07-13T14:13:16;4.93;;;3.67;;
76788;SDS011;65740;52.464;13.446;2023-07-13T14:15:45;6.17;;;4.10;;
76788;SDS011;65740;52.464;13.446;2023-07-13T14:18:12;7.77;;;4.00;;
76788;SDS011;65740;52.464;13.446;2023-07-13T14:20:43;10.30;;;4.37;;
76788;SDS011;65740;52.464;13.446;2023-07-13T14:23:10;5.27;;;4.43;;
76788;SDS011;65740;52.464;13.446;2023-07-13T14:25:37;5.80;;;3.80;;
76788;SDS011;65740;52.464;13.446;2023-07-13T14:28:04;10.37;;;4.27;;
76788;SDS011;65740;52.464;13.446;2023-07-13T14:30:51;7.00;;;4.20;;
76788;SDS011;65740;52.464;13.446;2023-07-13T14:33:17;5.20;;;3.77;;
76788;SDS011;65740;52.464;13.446;2023-07-13T14:35:43;7.27;;;4.13;;
76788;SDS011;65740;52.464;13.446;2023-07-13T14:38:13;6.67;;;3.53;;
76788;SDS011;65740;52.464;13.446;2023-07-13T14:40:42;4.77;;;3.60;;
76788;SDS011;65740;52.464;13.446;2023-07-13T14:43:09;4.63;;;3.50;;
76788;SDS011;65740;52.464;13.446;2023-07-13T14:45:37;4.83;;;4.03;;
76788;SDS011;65740;52.464;13.446;2023-07-13T14:48:17;4.13;;;3.60;;
76788;SDS011;65740;52.464;13.446;2023-07-13T14:50:45;3.90;;;3.60;;
76788;SDS011;65740;52.464;13.446;2023-07-13T14:53:12;5.83;;;3.70;;
76788;SDS011;65740;52.464;13.446;2023-07-13T14:55:38;3.93;;;3.30;;
76788;SDS011;65740;52.464;13.446;2023-07-13T14:58:04;3.90;;;3.60;;
76788;SDS011;65740;52.464;13.446;2023-07-13T15:00:31;5.90;;;3.40;;
76788;SDS011;65740;52.464;13.446;2023-07-13T15:02:57;3.87;;;3.10;;
76788;SDS011;65740;52.464;13.446;2023-07-13T15:05:26;4.63;;;2.97;;
76788;SDS011;65740;52.464;13.446;2023-07-13T15:07:56;4.00;;;3.60;;
76788;SDS011;65740;52.464;13.446;2023-07-13T15:10:27;3.73;;;3.43;;
76788;SDS011;65740;52.464;13.446;2023-07-13T15:13:12;3.63;;;3.40;;
76788;SDS011;65740;52.464;13.446;2023-07-13T15:15:41;3.70;;;3.27;;
76788;SDS011;65740;52.464;13.446;2023-07-13T15:18:11;4.90;;;3.30;;
76788;SDS011;65740;52.464;13.446;2023-07-13T15:20:37;3.23;;;3.00;;
76788;SDS011;65740;52.464;13.446;2023-07-13T15:23:04;3.67;;;3.47;;